Nearby METAR Reports

 

KSEE - San Diego/Santee, California, USA
Distance from station: E 4mi, 6km
Updated: 07/05/2020 6:35pm
Clear
Clear
 Wind from W
Wind: W 9 mph , 15 km/h
Temperature: 86°F , 30°C
Dew Point: 52°F , 11°C
Humidity: 31%
Barometer: 29.83 inHg , 1010.2 hPa
Clouds: Clear
Visibility: 10 miles , 16 km
2020/07/06 01:35 KSEE 060135Z AUTO 27008KT 10SM CLR 30/11 A2983 RMK AO2
KMYF - San Diego/Mntgmy, California, USA
Distance from station: W 6mi, 10km
Updated: 07/05/2020 5:53pm
Clear
Clear
 Wind from W
Wind: W 7 mph , 11 km/h
Temperature: 81°F , 27°C
Heat Index: 82°F , 28°C
Dew Point: 63°F , 17°C
Humidity: 54%
Barometer: 29.87 inHg , 1011.5 hPa
Clouds: Clear
Visibility: 10 miles , 16 km
2020/07/06 00:53 KMYF 060053Z 26006KT 10SM CLR 27/17 A2987 RMK AO2 SLP108 T02720172
 
KNKX - Miramar Nas/San, California, USA
Distance from station: WNW 7mi, 11km
Updated: 07/05/2020 5:55pm
Clear
Clear
 Wind from WNW
Wind: WNW 7 mph , 11 km/h
Temperature: 82°F , 28°C
Heat Index: 81°F , 27°C
Dew Point: 55°F , 13°C
Humidity: 40%
Barometer: 29.86 inHg , 1011.2 hPa
Clouds: Clear
Visibility: 10 miles , 16 km
2020/07/06 00:55 KNKX 060055Z 30006KT 10SM CLR 28/13 A2986 RMK AO2 SLP106 T02830128 $
KSAN - San Diego, California, USA
Distance from station: WSW 11mi, 17km
Updated: 07/05/2020 5:51pm
Few Clouds
Few Clouds
 Wind from WNW
Wind: WNW 7 mph , 11 km/h
Temperature: 77°F , 25°C
Dew Point: 61°F , 16°C
Humidity: 57%
Barometer: 29.87 inHg , 1011.5 hPa
Clouds: Few Clouds
Visibility: 10 miles , 16 km
Cloud details: Few Clouds 1000 ft
2020/07/06 00:51 KSAN 060051Z 29006KT 10SM FEW010 25/16 A2987 RMK AO2 SLP115 T02500161
 
KNZY - North Island Nas, California, USA
Distance from station: SW 13mi, 22km
Updated: 07/05/2020 5:52pm
Few Clouds
Few Clouds
 Wind from W
Wind: W 8 mph , 13 km/h
Temperature: 75°F , 24°C
Dew Point: 64°F , 18°C
Humidity: 69%
Barometer: 29.85 inHg , 1010.8 hPa
Clouds: Few Clouds
Visibility: 10 miles , 16 km
Cloud details: Few Clouds 1000 ft
2020/07/06 00:52 KNZY 060052Z 28007KT 10SM FEW010 24/18 A2985 RMK AO2 SLP109 T02440178
KRNM - Ramona, California, USA
Distance from station: NNE 16mi, 26km
Updated: 07/05/2020 5:53pm
Clear
Clear
 Wind from W
Wind: W 10 mph , 17 km/h
Temperature: 88°F , 31°C
Dew Point: 45°F , 7°C
Humidity: 22%
Barometer: 29.89 inHg , 1012.2 hPa
Clouds: Clear
Visibility: 10 miles , 16 km
2020/07/06 00:53 KRNM 060053Z 27009KT 10SM CLR 31/07 A2989 RMK AO2 SLP107 T03060067
 
KSDM - San Diego/Brown, California, USA
Distance from station: S 16mi, 26km
Updated: 07/05/2020 5:53pm
Clear
Clear
 Wind from W
Wind: W 6 mph , 9 km/h
Temperature: 81°F , 27°C
Heat Index: 81°F , 27°C
Dew Point: 55°F , 13°C
Humidity: 42%
Barometer: 29.87 inHg , 1011.5 hPa
Clouds: Clear
Visibility: 10 miles , 16 km
2020/07/06 00:53 KSDM 060053Z 28005KT 10SM CLR 27/13 A2987 RMK AO2 SLP108 T02670133
KNRS - Imperial Beach, California, USA
Distance from station: SSW 18mi, 29km
Updated: 07/05/2020 5:56pm
Clear
Clear
 
Barometer: 29.87 inHg , 1011.5 hPa
Clouds: Clear
Visibility: 8 miles , 13 km
2020/07/06 00:56 KNRS 060056Z AUTO 8SM CLR A2987 RMK AO2 SLP116 $
 
MMTJ - Tijuana Intl Arp, Mexico
Distance from station: S 20mi, 32km
Updated: 07/05/2020 5:41pm
Clear
Clear
 Wind from W
Wind: W 9 mph , 15 km/h
Temperature: 81°F , 27°C
Dew Point: 54°F , 12°C
Humidity: 39%
Barometer: 29.89 inHg , 1012.2 hPa
Clouds: Clear
Visibility: 9 miles , 14 km
2020/07/06 00:41 MMTJ 060041Z 27008KT 9SM SKC 27/12 A2989 RMK HZY
KCRQ - Carlsbad, California, USA
Distance from station: NW 26mi, 43km
Updated: 07/05/2020 5:53pm
Clear
Clear
 Wind from WSW
Wind: WSW 6 mph , 9 km/h
Temperature: 73°F , 23°C
Dew Point: 61°F , 16°C
Humidity: 65%
Barometer: 29.85 inHg , 1010.8 hPa
Clouds: Clear
Visibility: 10 miles , 16 km
2020/07/06 00:53 KCRQ 060053Z 25005KT 10SM CLR 23/16 A2985 RMK AO2 SLP106 T02330161
 
KOKB - Oceanside, California, USA
Distance from station: NW 33mi, 54km
Updated: 07/05/2020 5:52pm
Haze, Clear
Haze, Clear
 Wind from WSW
Wind: WSW 8 mph , 13 km/h
Temperature: 75°F , 24°C
Dew Point: 66°F , 19°C
Humidity: 74%
Barometer: 29.85 inHg , 1010.8 hPa
Summary: Haze
Clouds: Clear
Visibility: 5 miles , 8 km
2020/07/06 00:52 KOKB 060052Z AUTO 25007KT 5SM HZ CLR 24/19 A2985 RMK AO2 SLP107 T02440194 $
KCZZ - Campo, California, USA
Distance from station: ESE 35mi, 56km
Updated: 07/05/2020 5:52pm

 Wind from W
Wind: W 13 mph , 20 km/h
Temperature: 91°F , 33°C
Dew Point: 43°F , 6°C
Humidity: 18%
Barometer: 29.91 inHg , 1012.9 hPa
2020/07/06 00:52 KCZZ 060052Z AUTO 26011KT 240V300 33/06 A2991 RMK AO1 SLP096 T03280056
 
KNFG - Camp Pendleton, California, USA
Distance from station: NNW 37mi, 59km
Updated: 07/05/2020 5:55pm
Clear
Clear
 Wind from SSW
Wind: SSW 8 mph , 13 km/h
Temperature: 79°F , 26°C
Dew Point: 54°F , 12°C
Humidity: 42%
Barometer: 29.84 inHg , 1010.5 hPa
Clouds: Clear
Visibility: 10 miles , 16 km
2020/07/06 00:55 KNFG 060055Z AUTO 21007KT 10SM CLR 26/12 A2984 RMK AO2 SLP105 T02610122 $
KRIV - Riverside/March, California, USA
Distance from station: N 74mi, 119km
Updated: 07/05/2020 5:58pm
Clear
Clear
 Wind from NW
Wind: NW 13 mph , 20 km/h
Temperature: 93°F , 34°C
Dew Point: 43°F , 6°C
Humidity: 17%
Barometer: 29.87 inHg , 1011.5 hPa
Clouds: Clear
Visibility: 10 miles , 16 km
2020/07/06 00:58 KRIV 060058Z AUTO 31011KT 10SM CLR 34/06 A2987 RMK AO2 SLP102 T03400063
 
KTRM - Thermal/Palm Spg, California, USA
Distance from station: NE 75mi, 121km
Updated: 07/05/2020 5:52pm
Clear
Clear
 Wind from SSE
Wind: SSE 3 mph , 6 km/h
Temperature: 111°F , 44°C
Dew Point: 46°F , 8°C
Humidity: 11%
Barometer: 29.62 inHg , 1003 hPa
Clouds: Clear
Visibility: 10 miles , 16 km
2020/07/06 00:52 KTRM 060052Z AUTO 15003KT 10SM CLR 44/08 A2962 RMK AO2 SLP032 T04390078
KPSP - Palm Springs, California, USA
Distance from station: NNE 76mi, 122km
Updated: 07/05/2020 5:53pm
Clear
Clear
 Wind from NW
Wind: NW 21 mph , 33 km/h, Gust: 29 mph , 46 km/h
Temperature: 111°F , 44°C
Dew Point: 41°F , 5°C
Humidity: 9%
Barometer: 29.69 inHg , 1005.4 hPa
Clouds: Clear
Visibility: 10 miles , 16 km
2020/07/06 00:53 KPSP 060053Z 32018G25KT 10SM CLR 44/05 A2969 RMK AO2 SLP049 T04390050
 
KSNA - Costa Mesa, California, USA
Distance from station: NW 76mi, 123km
Updated: 07/05/2020 5:53pm
Clear
Clear
 Wind from WSW
Wind: WSW 7 mph , 11 km/h
Temperature: 81°F , 27°C
Heat Index: 81°F , 27°C
Dew Point: 55°F , 13°C
Humidity: 42%
Barometer: 29.84 inHg , 1010.5 hPa
Clouds: Clear
Visibility: 10 miles , 16 km
2020/07/06 00:53 KSNA 060053Z 25006KT 10SM CLR 27/13 A2984 RMK AO2 SLP105 T02670128
KNJK - El Centro Naf, California, USA
Distance from station: E 79mi, 127km
Updated: 07/05/2020 4:56pm
NOT Current
Clear
Clear
 Wind from SSW
Wind: SSW 5 mph , 7 km/h
Temperature: 109°F , 43°C
Dew Point: 30°F , -1°C
Humidity: 6%
Barometer: 29.67 inHg , 1004.7 hPa
Clouds: Clear
Visibility: 10 miles , 16 km
2020/07/05 23:56 KNJK 052356Z AUTO 21004KT 10SM CLR 43/M01 A2967 RMK AO2 SLP061 T04331011 10444 20394 58026
 
KAJO - Corona Muni, California, USA
Distance from station: NNW 82mi, 132km
Updated: 07/05/2020 5:56pm
Clear
Clear
 Wind from WNW
Wind: WNW 16 mph , 26 km/h, Gust: 22 mph , 35 km/h
Temperature: 90°F , 32°C
Dew Point: 54°F , 12°C
Humidity: 29%
Barometer: 29.83 inHg , 1010.2 hPa
Clouds: Clear
Visibility: 10 miles , 16 km
2020/07/06 00:56 KAJO 060056Z AUTO 29014G19KT 10SM CLR 32/12 A2983 RMK AO2 SLP094 T03170122